Karlsborg, Sweden
Current Conditions -  °F | °C
As of 11:20 PM on Monday 20 Oct 2014 (Local Time) from ESGR Reporting Station
Haze Haze  
Wind Chill: 50°   Ceiling: 2100
Heat Index: 50°   Visibility: 5mi
Dew Point: 48°   Wind: 5mph
Humidity: 94%   Direction: 230°SW
Pressure: 29.56"   Gusts: NA
Location:  58.54°N, 14.5°E
Report Text: ESGR 202120Z AUTO 23004KT 8000 BR BKN021/// 10/09 Q1001
Loading
Personal Weather Stations






























Interactive Weather Map
Tropical Storm Tracking
New forecast layout! Learn more

10-Day Weather Forecast

Advertisements
Track Severe Weather on mobile